sensor_id;sensor_type;location;lat;lon;timestamp;pressure;altitude;pressure_sealevel;temperature;humidity
69982;BME280;57319;56.274;43.980;2023-09-30T00:00:26;100190.63;;;11.02;90.03
69982;BME280;57319;56.274;43.980;2023-09-30T00:02:52;100194.91;;;11.00;90.02
69982;BME280;57319;56.274;43.980;2023-09-30T00:05:18;100186.34;;;10.99;89.83
69982;BME280;57319;56.274;43.980;2023-09-30T00:07:46;100181.16;;;11.02;90.00
69982;BME280;57319;56.274;43.980;2023-09-30T00:10:12;100182.91;;;10.97;90.01
69982;BME280;57319;56.274;43.980;2023-09-30T00:12:38;100182.09;;;10.92;90.01
69982;BME280;57319;56.274;43.980;2023-09-30T00:15:04;100174.41;;;10.86;90.16
69982;BME280;57319;56.274;43.980;2023-09-30T00:17:30;100175.28;;;10.83;89.94
69982;BME280;57319;56.274;43.980;2023-09-30T00:19:56;100175.31;;;10.82;90.10
69982;BME280;57319;56.274;43.980;2023-09-30T00:22:22;100175.31;;;10.80;90.29
69982;BME280;57319;56.274;43.980;2023-09-30T00:24:47;100171.91;;;10.80;90.18
69982;BME280;57319;56.274;43.980;2023-09-30T00:27:13;100178.75;;;10.78;90.87
69982;BME280;57319;56.274;43.980;2023-09-30T00:29:39;100170.16;;;10.80;90.98
69982;BME280;57319;56.274;43.980;2023-09-30T00:32:05;100176.16;;;10.81;90.91
69982;BME280;57319;56.274;43.980;2023-09-30T00:34:34;100179.59;;;10.83;90.52
69982;BME280;57319;56.274;43.980;2023-09-30T00:37:00;100182.13;;;10.86;90.80
69982;BME280;57319;56.274;43.980;2023-09-30T00:39:26;100172.69;;;10.85;90.93
69982;BME280;57319;56.274;43.980;2023-09-30T00:41:56;100170.94;;;10.90;90.68
69982;BME280;57319;56.274;43.980;2023-09-30T00:44:25;100169.19;;;10.95;90.59
69982;BME280;57319;56.274;43.980;2023-09-30T00:46:50;100175.16;;;10.99;90.47
69982;BME280;57319;56.274;43.980;2023-09-30T00:49:16;100174.28;;;11.01;90.24
69982;BME280;57319;56.274;43.980;2023-09-30T00:51:45;100178.56;;;11.09;89.69
69982;BME280;57319;56.274;43.980;2023-09-30T00:54:11;100169.06;;;11.12;89.86
69982;BME280;57319;56.274;43.980;2023-09-30T00:56:44;100164.78;;;11.13;89.91
69982;BME280;57319;56.274;43.980;2023-09-30T00:59:13;100168.19;;;11.15;89.96
69982;BME280;57319;56.274;43.980;2023-09-30T01:01:41;100175.84;;;11.24;89.70
69982;BME280;57319;56.274;43.980;2023-09-30T01:04:07;100178.34;;;11.30;88.80
69982;BME280;57319;56.274;43.980;2023-09-30T01:06:32;100175.75;;;11.32;88.83
69982;BME280;57319;56.274;43.980;2023-09-30T01:08:58;100169.72;;;11.37;88.77
69982;BME280;57319;56.274;43.980;2023-09-30T01:11:25;100172.25;;;11.41;88.42
69982;BME280;57319;56.274;43.980;2023-09-30T01:13:51;100161.91;;;11.44;87.94
69982;BME280;57319;56.274;43.980;2023-09-30T01:16:17;100162.75;;;11.46;87.93
69982;BME280;57319;56.274;43.980;2023-09-30T01:18:43;100155.88;;;11.46;87.45
69982;BME280;57319;56.274;43.980;2023-09-30T01:21:09;100142.09;;;11.50;87.50
69982;BME280;57319;56.274;43.980;2023-09-30T01:23:35;100144.63;;;11.52;87.34
69982;BME280;57319;56.274;43.980;2023-09-30T01:26:12;100156.66;;;11.54;87.41
69982;BME280;57319;56.274;43.980;2023-09-30T01:28:38;100157.50;;;11.55;86.95
69982;BME280;57319;56.274;43.980;2023-09-30T01:31:04;100158.38;;;11.54;87.02
69982;BME280;57319;56.274;43.980;2023-09-30T01:33:31;100156.72;;;11.50;87.06
69982;BME280;57319;56.274;43.980;2023-09-30T01:35:58;100149.78;;;11.53;87.02
69982;BME280;57319;56.274;43.980;2023-09-30T01:38:23;100157.50;;;11.53;86.90
69982;BME280;57319;56.274;43.980;2023-09-30T01:40:49;100148.06;;;11.56;87.08
69982;BME280;57319;56.274;43.980;2023-09-30T01:43:15;100153.16;;;11.59;87.00
69982;BME280;57319;56.274;43.980;2023-09-30T01:45:41;100145.41;;;11.60;86.75
69982;BME280;57319;56.274;43.980;2023-09-30T01:48:08;100151.44;;;11.62;86.73
69982;BME280;57319;56.274;43.980;2023-09-30T01:50:39;100142.78;;;11.63;86.66
69982;BME280;57319;56.274;43.980;2023-09-30T01:53:08;100149.59;;;11.69;86.73
69982;BME280;57319;56.274;43.980;2023-09-30T01:55:37;100140.97;;;11.75;86.43
69982;BME280;57319;56.274;43.980;2023-09-30T01:58:03;100145.22;;;11.77;86.04
69982;BME280;57319;56.274;43.980;2023-09-30T02:00:28;100138.34;;;11.79;85.78
69982;BME280;57319;56.274;43.980;2023-09-30T02:02:55;100129.72;;;11.80;85.72
69982;BME280;57319;56.274;43.980;2023-09-30T02:05:21;100127.97;;;11.82;85.36
69982;BME280;57319;56.274;43.980;2023-09-30T02:07:48;100119.41;;;11.82;85.34
69982;BME280;57319;56.274;43.980;2023-09-30T02:10:14;100123.69;;;11.81;85.33
69982;BME280;57319;56.274;43.980;2023-09-30T02:12:39;100127.13;;;11.82;85.08
69982;BME280;57319;56.274;43.980;2023-09-30T02:15:06;100136.59;;;11.83;84.95
69982;BME280;57319;56.274;43.980;2023-09-30T02:17:36;100129.63;;;11.86;84.88
69982;BME280;57319;56.274;43.980;2023-09-30T02:20:02;100129.59;;;11.89;84.86
69982;BME280;57319;56.274;43.980;2023-09-30T02:22:52;100127.84;;;11.93;84.57
69982;BME280;57319;56.274;43.980;2023-09-30T02:25:19;100119.25;;;11.96;84.26
69982;BME280;57319;56.274;43.980;2023-09-30T02:27:45;100124.38;;;11.97;84.38
69982;BME280;57319;56.274;43.980;2023-09-30T02:30:11;100127.84;;;11.96;84.45
69982;BME280;57319;56.274;43.980;2023-09-30T02:32:41;100122.69;;;11.93;84.34
69982;BME280;57319;56.274;43.980;2023-09-30T02:35:08;100122.72;;;11.90;84.46
69982;BME280;57319;56.274;43.980;2023-09-30T02:37:37;100119.31;;;11.86;84.36
69982;BME280;57319;56.274;43.980;2023-09-30T02:40:04;100113.38;;;11.81;84.71
69982;BME280;57319;56.274;43.980;2023-09-30T02:42:40;100118.53;;;11.80;84.72
69982;BME280;57319;56.274;43.980;2023-09-30T02:45:07;100113.47;;;11.74;85.13
69982;BME280;57319;56.274;43.980;2023-09-30T02:47:37;100117.81;;;11.68;85.36
69982;BME280;57319;56.274;43.980;2023-09-30T02:50:05;100114.41;;;11.66;85.15
69982;BME280;57319;56.274;43.980;2023-09-30T02:52:31;100107.56;;;11.64;85.06
69982;BME280;57319;56.274;43.980;2023-09-30T02:55:00;100111.03;;;11.61;85.34
69982;BME280;57319;56.274;43.980;2023-09-30T02:57:26;100103.34;;;11.58;85.59
69982;BME280;57319;56.274;43.980;2023-09-30T02:59:55;100099.06;;;11.56;85.75
69982;BME280;57319;56.274;43.980;2023-09-30T03:02:21;100101.66;;;11.52;85.70
69982;BME280;57319;56.274;43.980;2023-09-30T03:04:48;100100.84;;;11.50;85.80
69982;BME280;57319;56.274;43.980;2023-09-30T03:07:15;100090.56;;;11.47;86.12
69982;BME280;57319;56.274;43.980;2023-09-30T03:09:41;100088.03;;;11.41;86.45
69982;BME280;57319;56.274;43.980;2023-09-30T03:12:07;100083.75;;;11.42;86.15
69982;BME280;57319;56.274;43.980;2023-09-30T03:14:34;100082.88;;;11.41;86.30
69982;BME280;57319;56.274;43.980;2023-09-30T03:17:00;100085.47;;;11.41;86.24
69982;BME280;57319;56.274;43.980;2023-09-30T03:19:25;100085.50;;;11.40;86.33
69982;BME280;57319;56.274;43.980;2023-09-30T03:21:51;100090.66;;;11.38;86.40
69982;BME280;57319;56.274;43.980;2023-09-30T03:24:17;100094.94;;;11.39;86.32
69982;BME280;57319;56.274;43.980;2023-09-30T03:26:42;100100.94;;;11.40;86.14
69982;BME280;57319;56.274;43.980;2023-09-30T03:29:09;100099.22;;;11.42;86.19
69982;BME280;57319;56.274;43.980;2023-09-30T03:31:36;100106.03;;;11.44;85.96
69982;BME280;57319;56.274;43.980;2023-09-30T03:34:05;100103.47;;;11.47;85.67
69982;BME280;57319;56.274;43.980;2023-09-30T03:36:31;100100.84;;;11.50;86.07
69982;BME280;57319;56.274;43.980;2023-09-30T03:38:58;100103.34;;;11.55;85.69
69982;BME280;57319;56.274;43.980;2023-09-30T03:41:30;100101.59;;;11.60;85.23
69982;BME280;57319;56.274;43.980;2023-09-30T03:43:56;100096.38;;;11.63;85.03
69982;BME280;57319;56.274;43.980;2023-09-30T03:46:22;100089.47;;;11.67;85.23
69982;BME280;57319;56.274;43.980;2023-09-30T03:48:48;100091.16;;;11.69;85.03
69982;BME280;57319;56.274;43.980;2023-09-30T03:51:14;100090.31;;;11.70;85.29
69982;BME280;57319;56.274;43.980;2023-09-30T03:53:46;100084.28;;;11.70;84.94
69982;BME280;57319;56.274;43.980;2023-09-30T03:56:12;100083.38;;;11.73;85.11
69982;BME280;57319;56.274;43.980;2023-09-30T03:58:46;100088.53;;;11.74;84.81
69982;BME280;57319;56.274;43.980;2023-09-30T04:01:13;100091.91;;;11.79;84.73
69982;BME280;57319;56.274;43.980;2023-09-30T04:03:39;100093.63;;;11.77;84.76
69982;BME280;57319;56.274;43.980;2023-09-30T04:06:06;100079.00;;;11.81;84.61
69982;BME280;57319;56.274;43.980;2023-09-30T04:08:35;100078.09;;;11.83;84.48
69982;BME280;57319;56.274;43.980;2023-09-30T04:11:02;100084.97;;;11.86;84.28
69982;BME280;57319;56.274;43.980;2023-09-30T04:13:31;100089.19;;;11.90;84.03
69982;BME280;57319;56.274;43.980;2023-09-30T04:15:57;100087.41;;;11.94;83.93
69982;BME280;57319;56.274;43.980;2023-09-30T04:18:25;100085.72;;;11.96;84.00
69982;BME280;57319;56.274;43.980;2023-09-30T04:20:54;100083.03;;;12.02;83.96
69982;BME280;57319;56.274;43.980;2023-09-30T04:23:19;100087.28;;;12.09;83.46
69982;BME280;57319;56.274;43.980;2023-09-30T04:25:48;100084.56;;;12.17;83.56
69982;BME280;57319;56.274;43.980;2023-09-30T04:28:15;100081.03;;;12.26;82.80
69982;BME280;57319;56.274;43.980;2023-09-30T04:30:41;100079.19;;;12.34;82.54
69982;BME280;57319;56.274;43.980;2023-09-30T04:33:07;100073.03;;;12.41;82.34
69982;BME280;57319;56.274;43.980;2023-09-30T04:35:33;100081.56;;;12.48;82.42
69982;BME280;57319;56.274;43.980;2023-09-30T04:38:01;100063.34;;;12.55;81.46
69982;BME280;57319;56.274;43.980;2023-09-30T04:40:27;100065.88;;;12.60;81.39
69982;BME280;57319;56.274;43.980;2023-09-30T04:42:53;100073.59;;;12.62;81.42
69982;BME280;57319;56.274;43.980;2023-09-30T04:45:25;100069.22;;;12.65;81.10
69982;BME280;57319;56.274;43.980;2023-09-30T04:47:52;100068.28;;;12.71;80.38
69982;BME280;57319;56.274;43.980;2023-09-30T04:50:18;100068.28;;;12.71;80.64
69982;BME280;57319;56.274;43.980;2023-09-30T04:52:48;100072.56;;;12.70;80.20
69982;BME280;57319;56.274;43.980;2023-09-30T04:55:14;100071.66;;;12.73;80.17
69982;BME280;57319;56.274;43.980;2023-09-30T04:57:46;100073.41;;;12.72;80.16
69982;BME280;57319;56.274;43.980;2023-09-30T05:00:15;100070.84;;;12.72;80.39
69982;BME280;57319;56.274;43.980;2023-09-30T05:02:50;100068.22;;;12.74;80.37
69982;BME280;57319;56.274;43.980;2023-09-30T05:05:18;100075.09;;;12.75;79.99
69982;BME280;57319;56.274;43.980;2023-09-30T05:07:44;100065.59;;;12.76;80.10
69982;BME280;57319;56.274;43.980;2023-09-30T05:10:12;100067.28;;;12.78;80.01
69982;BME280;57319;56.274;43.980;2023-09-30T05:12:43;100072.38;;;12.83;79.96
69982;BME280;57319;56.274;43.980;2023-09-30T05:15:12;100073.19;;;12.86;79.69
69982;BME280;57319;56.274;43.980;2023-09-30T05:17:38;100067.06;;;12.92;79.61
69982;BME280;57319;56.274;43.980;2023-09-30T05:20:05;100062.66;;;12.97;79.32
69982;BME280;57319;56.274;43.980;2023-09-30T05:22:35;100062.56;;;13.02;79.34
69982;BME280;57319;56.274;43.980;2023-09-30T05:25:01;100061.53;;;13.12;78.92
69982;BME280;57319;56.274;43.980;2023-09-30T05:27:29;100062.16;;;13.25;78.55
69982;BME280;57319;56.274;43.980;2023-09-30T05:29:56;100070.50;;;13.41;78.24
69982;BME280;57319;56.274;43.980;2023-09-30T05:32:22;100066.03;;;13.49;77.83
69982;BME280;57319;56.274;43.980;2023-09-30T05:34:47;100057.13;;;13.64;77.22
69982;BME280;57319;56.274;43.980;2023-09-30T05:37:13;100063.81;;;13.74;77.03
69982;BME280;57319;56.274;43.980;2023-09-30T05:39:39;100062.66;;;13.88;76.41
69982;BME280;57319;56.274;43.980;2023-09-30T05:42:05;100061.63;;;13.95;75.88
69982;BME280;57319;56.274;43.980;2023-09-30T05:44:32;100060.63;;;14.02;75.81
69982;BME280;57319;56.274;43.980;2023-09-30T05:46:58;100063.97;;;14.07;75.63
69982;BME280;57319;56.274;43.980;2023-09-30T05:49:25;100057.81;;;14.12;75.64
69982;BME280;57319;56.274;43.980;2023-09-30T05:51:51;100058.59;;;14.17;75.68
69982;BME280;57319;56.274;43.980;2023-09-30T05:54:16;100052.38;;;14.24;75.64
69982;BME280;57319;56.274;43.980;2023-09-30T05:56:42;100051.38;;;14.30;75.62
69982;BME280;57319;56.274;43.980;2023-09-30T05:59:09;100051.28;;;14.34;75.84
69982;BME280;57319;56.274;43.980;2023-09-30T06:01:35;100050.28;;;14.40;75.84
69982;BME280;57319;56.274;43.980;2023-09-30T06:04:04;100046.69;;;14.46;75.83
69982;BME280;57319;56.274;43.980;2023-09-30T06:06:30;100043.09;;;14.51;75.73
69982;BME280;57319;56.274;43.980;2023-09-30T06:08:56;100042.88;;;14.61;75.89
69982;BME280;57319;56.274;43.980;2023-09-30T06:11:26;100043.66;;;14.64;75.48
69982;BME280;57319;56.274;43.980;2023-09-30T06:13:54;100037.53;;;14.68;75.18
69982;BME280;57319;56.274;43.980;2023-09-30T06:16:20;100032.28;;;14.71;75.33
69982;BME280;57319;56.274;43.980;2023-09-30T06:18:46;100026.16;;;14.74;75.16
69982;BME280;57319;56.274;43.980;2023-09-30T06:21:15;100025.16;;;14.80;75.01
69982;BME280;57319;56.274;43.980;2023-09-30T06:23:43;100039.75;;;14.84;74.87
69982;BME280;57319;56.274;43.980;2023-09-30T06:26:09;100030.97;;;14.89;74.59
69982;BME280;57319;56.274;43.980;2023-09-30T06:28:35;100025.66;;;14.94;74.91
69982;BME280;57319;56.274;43.980;2023-09-30T06:31:07;100023.78;;;14.99;74.58
69982;BME280;57319;56.274;43.980;2023-09-30T06:33:39;100028.75;;;15.08;74.55
69982;BME280;57319;56.274;43.980;2023-09-30T06:36:09;100018.97;;;15.18;74.39
69982;BME280;57319;56.274;43.980;2023-09-30T06:38:34;100020.34;;;15.30;74.15
69982;BME280;57319;56.274;43.980;2023-09-30T06:41:02;100014.88;;;15.41;74.02
69982;BME280;57319;56.274;43.980;2023-09-30T06:43:28;100017.09;;;15.53;73.45
69982;BME280;57319;56.274;43.980;2023-09-30T06:45:53;100017.63;;;15.66;72.99
69982;BME280;57319;56.274;43.980;2023-09-30T06:48:21;100013.00;;;15.76;72.74
69982;BME280;57319;56.274;43.980;2023-09-30T06:50:48;100023.09;;;15.85;72.34
69982;BME280;57319;56.274;43.980;2023-09-30T06:53:15;100019.50;;;15.91;72.23
69982;BME280;57319;56.274;43.980;2023-09-30T06:55:42;100023.72;;;15.95;72.29
69982;BME280;57319;56.274;43.980;2023-09-30T06:58:11;100019.19;;;16.00;71.98
69982;BME280;57319;56.274;43.980;2023-09-30T07:00:38;100013.88;;;16.05;72.01
69982;BME280;57319;56.274;43.980;2023-09-30T07:03:04;100011.91;;;16.13;71.88
69982;BME280;57319;56.274;43.980;2023-09-30T07:05:30;100007.38;;;16.18;71.38
69982;BME280;57319;56.274;43.980;2023-09-30T07:07:56;100004.59;;;16.24;71.14
69982;BME280;57319;56.274;43.980;2023-09-30T07:10:22;100005.38;;;16.26;70.97
69982;BME280;57319;56.274;43.980;2023-09-30T07:12:48;100010.56;;;16.28;70.73
69982;BME280;57319;56.274;43.980;2023-09-30T07:15:13;100011.34;;;16.30;70.46
69982;BME280;57319;56.274;43.980;2023-09-30T07:17:39;100003.41;;;16.35;70.40
69982;BME280;57319;56.274;43.980;2023-09-30T07:20:06;100005.81;;;16.41;70.15
69982;BME280;57319;56.274;43.980;2023-09-30T07:22:33;100005.47;;;16.52;69.91
69982;BME280;57319;56.274;43.980;2023-09-30T07:24:59;99994.66;;;16.64;69.59
69982;BME280;57319;56.274;43.980;2023-09-30T07:27:25;100005.28;;;16.83;69.11
69982;BME280;57319;56.274;43.980;2023-09-30T07:29:51;100003.94;;;16.96;68.84
69982;BME280;57319;56.274;43.980;2023-09-30T07:32:16;100006.97;;;17.09;68.29
69982;BME280;57319;56.274;43.980;2023-09-30T07:34:42;100009.25;;;17.19;68.09
69982;BME280;57319;56.274;43.980;2023-09-30T07:37:08;100010.03;;;17.21;67.86
69982;BME280;57319;56.274;43.980;2023-09-30T07:39:35;100002.41;;;17.16;67.74
69982;BME280;57319;56.274;43.980;2023-09-30T07:42:00;100005.00;;;17.16;67.49
69982;BME280;57319;56.274;43.980;2023-09-30T07:44:26;100004.50;;;17.06;67.40
69982;BME280;57319;56.274;43.980;2023-09-30T07:46:52;99998.44;;;17.06;67.26
69982;BME280;57319;56.274;43.980;2023-09-30T07:49:18;99995.69;;;17.10;66.99
69982;BME280;57319;56.274;43.980;2023-09-30T07:51:44;99995.69;;;17.10;67.24
69982;BME280;57319;56.274;43.980;2023-09-30T07:54:11;99984.28;;;17.15;66.75
69982;BME280;57319;56.274;43.980;2023-09-30T07:56:38;99991.00;;;17.20;66.70
69982;BME280;57319;56.274;43.980;2023-09-30T07:59:04;99987.44;;;17.23;66.48
69982;BME280;57319;56.274;43.980;2023-09-30T08:01:31;99989.03;;;17.27;66.99
69982;BME280;57319;56.274;43.980;2023-09-30T08:03:57;99988.78;;;17.33;66.92
69982;BME280;57319;56.274;43.980;2023-09-30T08:06:22;99990.25;;;17.40;66.43
69982;BME280;57319;56.274;43.980;2023-09-30T08:08:49;99988.31;;;17.45;66.34
69982;BME280;57319;56.274;43.980;2023-09-30T08:11:15;99983.69;;;17.54;66.29
69982;BME280;57319;56.274;43.980;2023-09-30T08:13:40;99976.31;;;17.65;66.00
69982;BME280;57319;56.274;43.980;2023-09-30T08:16:06;99979.41;;;17.75;66.09
69982;BME280;57319;56.274;43.980;2023-09-30T08:18:32;99979.16;;;17.81;66.13
69982;BME280;57319;56.274;43.980;2023-09-30T08:20:58;99978.81;;;17.90;66.06
69982;BME280;57319;56.274;43.980;2023-09-30T08:23:24;99980.34;;;17.96;65.47
69982;BME280;57319;56.274;43.980;2023-09-30T08:25:49;99963.03;;;17.95;65.21
69982;BME280;57319;56.274;43.980;2023-09-30T08:28:15;99967.81;;;18.06;65.22
69982;BME280;57319;56.274;43.980;2023-09-30T08:30:41;99967.63;;;18.10;65.18
69982;BME280;57319;56.274;43.980;2023-09-30T08:33:07;99967.56;;;18.12;65.31
69982;BME280;57319;56.274;43.980;2023-09-30T08:35:36;99977.25;;;18.08;65.29
69982;BME280;57319;56.274;43.980;2023-09-30T08:38:03;99970.41;;;18.06;65.15
69982;BME280;57319;56.274;43.980;2023-09-30T08:40:29;99954.06;;;18.02;65.19
69982;BME280;57319;56.274;43.980;2023-09-30T08:42:55;99964.53;;;18.01;65.32
69982;BME280;57319;56.274;43.980;2023-09-30T08:45:20;99959.03;;;18.08;65.40
69982;BME280;57319;56.274;43.980;2023-09-30T08:47:46;99957.19;;;18.10;65.35
69982;BME280;57319;56.274;43.980;2023-09-30T08:50:12;99953.50;;;18.16;65.61
69982;BME280;57319;56.274;43.980;2023-09-30T08:52:40;99955.84;;;18.22;65.49
69982;BME280;57319;56.274;43.980;2023-09-30T08:55:10;99953.06;;;18.27;65.33
69982;BME280;57319;56.274;43.980;2023-09-30T08:57:42;99947.47;;;18.36;65.16
69982;BME280;57319;56.274;43.980;2023-09-30T09:00:10;99949.69;;;18.45;64.73
69982;BME280;57319;56.274;43.980;2023-09-30T09:02:42;99948.25;;;18.59;64.81
69982;BME280;57319;56.274;43.980;2023-09-30T09:05:08;99941.59;;;18.72;64.53
69982;BME280;57319;56.274;43.980;2023-09-30T09:07:35;99937.84;;;18.78;63.55
69982;BME280;57319;56.274;43.980;2023-09-30T09:10:05;99939.22;;;18.87;63.35
69982;BME280;57319;56.274;43.980;2023-09-30T09:12:34;99940.75;;;18.92;63.10
69982;BME280;57319;56.274;43.980;2023-09-30T09:15:00;99937.94;;;18.97;63.29
69982;BME280;57319;56.274;43.980;2023-09-30T09:17:43;99933.09;;;19.08;62.96
69982;BME280;57319;56.274;43.980;2023-09-30T09:20:20;99940.41;;;19.19;62.24
69982;BME280;57319;56.274;43.980;2023-09-30T09:22:48;99935.56;;;19.30;61.78
69982;BME280;57319;56.274;43.980;2023-09-30T09:25:16;99927.38;;;19.38;61.35
69982;BME280;57319;56.274;43.980;2023-09-30T09:27:42;99928.25;;;19.39;60.53
69982;BME280;57319;56.274;43.980;2023-09-30T09:30:25;99929.06;;;19.39;60.54
69982;BME280;57319;56.274;43.980;2023-09-30T09:33:04;99925.31;;;19.45;60.47
69982;BME280;57319;56.274;43.980;2023-09-30T09:35:32;99929.47;;;19.49;59.71
69982;BME280;57319;56.274;43.980;2023-09-30T09:38:06;99922.84;;;19.61;59.57
69982;BME280;57319;56.274;43.980;2023-09-30T09:40:35;99917.94;;;19.72;59.38
69982;BME280;57319;56.274;43.980;2023-09-30T09:43:02;99915.84;;;19.80;58.83
69982;BME280;57319;56.274;43.980;2023-09-30T09:45:36;99920.28;;;19.78;57.90
69982;BME280;57319;56.274;43.980;2023-09-30T09:48:04;99910.75;;;19.77;58.47
69982;BME280;57319;56.274;43.980;2023-09-30T09:50:30;99913.78;;;19.87;58.80
69982;BME280;57319;56.274;43.980;2023-09-30T09:52:58;99907.72;;;19.87;58.40
69982;BME280;57319;56.274;43.980;2023-09-30T09:55:24;99907.56;;;19.90;58.52
69982;BME280;57319;56.274;43.980;2023-09-30T09:57:51;99909.88;;;19.96;58.19
69982;BME280;57319;56.274;43.980;2023-09-30T10:00:24;99904.44;;;20.00;57.36
69982;BME280;57319;56.274;43.980;2023-09-30T10:02:51;99896.34;;;20.05;57.53
69982;BME280;57319;56.274;43.980;2023-09-30T10:05:18;99898.59;;;20.13;57.40
69982;BME280;57319;56.274;43.980;2023-09-30T10:10:28;99893.50;;;20.27;57.04
69982;BME280;57319;56.274;43.980;2023-09-30T10:12:55;99885.44;;;20.32;57.31
69982;BME280;57319;56.274;43.980;2023-09-30T10:18:02;99875.44;;;20.40;56.65
69982;BME280;57319;56.274;43.980;2023-09-30T10:20:40;99881.34;;;20.44;55.35
69982;BME280;57319;56.274;43.980;2023-09-30T10:23:22;99879.16;;;20.52;54.76
69982;BME280;57319;56.274;43.980;2023-09-30T10:28:43;99874.56;;;20.57;53.09
69982;BME280;57319;56.274;43.980;2023-09-30T10:36:35;99863.13;;;20.76;53.31
69982;BME280;57319;56.274;43.980;2023-09-30T10:39:03;99872.94;;;20.72;53.45
69982;BME280;57319;56.274;43.980;2023-09-30T10:46:53;99856.94;;;20.61;52.31
69982;BME280;57319;56.274;43.980;2023-09-30T10:51:52;99857.69;;;20.80;52.28
69982;BME280;57319;56.274;43.980;2023-09-30T10:54:24;99856.50;;;20.86;51.73
69982;BME280;57319;56.274;43.980;2023-09-30T10:56:51;99853.63;;;20.91;51.52
69982;BME280;57319;56.274;43.980;2023-09-30T10:59:22;99854.16;;;20.97;51.54
69982;BME280;57319;56.274;43.980;2023-09-30T11:01:52;99851.78;;;20.93;51.55
69982;BME280;57319;56.274;43.980;2023-09-30T11:04:19;99856.53;;;21.02;51.67
69982;BME280;57319;56.274;43.980;2023-09-30T11:06:46;99852.56;;;21.11;51.11
69982;BME280;57319;56.274;43.980;2023-09-30T11:09:17;99857.19;;;21.06;51.16
69982;BME280;57319;56.274;43.980;2023-09-30T11:11:49;99855.56;;;21.03;51.66
69982;BME280;57319;56.274;43.980;2023-09-30T11:16:43;99856.19;;;21.08;51.78
69982;BME280;57319;56.274;43.980;2023-09-30T11:19:11;99854.34;;;21.10;52.00
69982;BME280;57319;56.274;43.980;2023-09-30T11:21:38;99846.50;;;21.10;52.03
69982;BME280;57319;56.274;43.980;2023-09-30T11:24:04;99848.75;;;21.16;52.39
69982;BME280;57319;56.274;43.980;2023-09-30T11:26:30;99842.31;;;21.22;52.42
69982;BME280;57319;56.274;43.980;2023-09-30T11:29:08;99835.06;;;21.27;52.30
69982;BME280;57319;56.274;43.980;2023-09-30T11:31:46;99838.59;;;21.42;52.07
69982;BME280;57319;56.274;43.980;2023-09-30T11:34:15;99845.59;;;21.74;50.90
69982;BME280;57319;56.274;43.980;2023-09-30T11:36:49;99836.31;;;22.13;49.43
69982;BME280;57319;56.274;43.980;2023-09-30T11:39:24;99837.31;;;22.10;49.61
69982;BME280;57319;56.274;43.980;2023-09-30T11:41:50;99827.63;;;22.12;50.07
69982;BME280;57319;56.274;43.980;2023-09-30T11:44:18;99828.31;;;22.45;48.85
69982;BME280;57319;56.274;43.980;2023-09-30T11:49:32;99824.88;;;23.00;47.29
69982;BME280;57319;56.274;43.980;2023-09-30T11:52:01;99825.19;;;22.96;47.37
69982;BME280;57319;56.274;43.980;2023-09-30T11:54:35;99816.91;;;23.16;46.71
69982;BME280;57319;56.274;43.980;2023-09-30T11:57:03;99814.63;;;23.25;46.45
69982;BME280;57319;56.274;43.980;2023-09-30T11:59:30;99820.38;;;23.02;47.01
69982;BME280;57319;56.274;43.980;2023-09-30T12:01:56;99811.16;;;22.82;47.31
69982;BME280;57319;56.274;43.980;2023-09-30T12:04:22;99806.47;;;22.73;47.71
69982;BME280;57319;56.274;43.980;2023-09-30T12:06:48;99812.00;;;22.54;48.38
69982;BME280;57319;56.274;43.980;2023-09-30T12:09:15;99811.97;;;22.25;48.80
69982;BME280;57319;56.274;43.980;2023-09-30T12:11:42;99812.47;;;21.87;48.79
69982;BME280;57319;56.274;43.980;2023-09-30T12:14:10;99810.94;;;21.68;49.71
69982;BME280;57319;56.274;43.980;2023-09-30T12:16:37;99818.84;;;21.52;49.98
69982;BME280;57319;56.274;43.980;2023-09-30T12:19:02;99811.84;;;21.37;50.45
69982;BME280;57319;56.274;43.980;2023-09-30T12:21:28;99808.56;;;21.17;51.23
69982;BME280;57319;56.274;43.980;2023-09-30T12:23:54;99811.44;;;20.97;51.37
69982;BME280;57319;56.274;43.980;2023-09-30T12:26:19;99802.50;;;20.85;51.97
69982;BME280;57319;56.274;43.980;2023-09-30T12:28:46;99799.19;;;20.97;51.48
69982;BME280;57319;56.274;43.980;2023-09-30T12:31:12;99796.41;;;21.16;51.40
69982;BME280;57319;56.274;43.980;2023-09-30T12:33:39;99788.28;;;21.37;50.92
69982;BME280;57319;56.274;43.980;2023-09-30T12:36:05;99780.09;;;21.43;50.50
69982;BME280;57319;56.274;43.980;2023-09-30T12:38:31;99788.28;;;21.37;50.75
69982;BME280;57319;56.274;43.980;2023-09-30T12:40:57;99782.81;;;21.26;51.18
69982;BME280;57319;56.274;43.980;2023-09-30T12:43:23;99782.41;;;21.17;51.51
69982;BME280;57319;56.274;43.980;2023-09-30T12:45:48;99784.59;;;21.09;51.88
69982;BME280;57319;56.274;43.980;2023-09-30T12:48:14;99782.09;;;21.08;52.05
69982;BME280;57319;56.274;43.980;2023-09-30T12:50:41;99779.28;;;21.11;52.18
69982;BME280;57319;56.274;43.980;2023-09-30T12:53:07;99777.41;;;21.13;51.83
69982;BME280;57319;56.274;43.980;2023-09-30T12:55:33;99779.00;;;21.15;51.29
69982;BME280;57319;56.274;43.980;2023-09-30T12:57:59;99775.28;;;21.19;51.30
69982;BME280;57319;56.274;43.980;2023-09-30T13:00:25;99775.59;;;21.29;51.00
69982;BME280;57319;56.274;43.980;2023-09-30T13:02:52;99775.38;;;21.18;51.08
69982;BME280;57319;56.274;43.980;2023-09-30T13:05:18;99776.41;;;21.15;51.24
69982;BME280;57319;56.274;43.980;2023-09-30T13:07:45;99777.81;;;21.37;50.58
69982;BME280;57319;56.274;43.980;2023-09-30T13:10:11;99763.53;;;21.73;49.42